sensor_id;sensor_type;location;lat;lon;timestamp;temperature;humidity
4584;DHT22;2304;47.606;12.186;2023-07-28T00:04:41;16.70;72.90
4584;DHT22;2304;47.606;12.186;2023-07-28T00:09:43;16.50;74.30
4584;DHT22;2304;47.606;12.186;2023-07-28T00:14:46;16.50;73.60
4584;DHT22;2304;47.606;12.186;2023-07-28T00:19:48;16.40;73.60
4584;DHT22;2304;47.606;12.186;2023-07-28T00:24:50;16.40;74.30
4584;DHT22;2304;47.606;12.186;2023-07-28T00:29:53;16.40;74.80
4584;DHT22;2304;47.606;12.186;2023-07-28T00:34:55;16.40;74.80
4584;DHT22;2304;47.606;12.186;2023-07-28T00:39:57;16.40;75.10
4584;DHT22;2304;47.606;12.186;2023-07-28T00:45:00;16.50;75.20
4584;DHT22;2304;47.606;12.186;2023-07-28T00:50:03;16.50;73.70
4584;DHT22;2304;47.606;12.186;2023-07-28T00:55:06;16.50;74.00
4584;DHT22;2304;47.606;12.186;2023-07-28T01:00:10;16.70;73.70
4584;DHT22;2304;47.606;12.186;2023-07-28T01:05:12;16.60;73.60
4584;DHT22;2304;47.606;12.186;2023-07-28T01:10:18;16.40;73.30
4584;DHT22;2304;47.606;12.186;2023-07-28T01:15:23;16.40;74.70
4584;DHT22;2304;47.606;12.186;2023-07-28T01:20:30;16.50;75.30
4584;DHT22;2304;47.606;12.186;2023-07-28T01:25:42;16.70;74.60
4584;DHT22;2304;47.606;12.186;2023-07-28T01:30:46;16.80;73.30
4584;DHT22;2304;47.606;12.186;2023-07-28T01:35:49;16.90;73.10
4584;DHT22;2304;47.606;12.186;2023-07-28T01:40:51;16.90;72.20
4584;DHT22;2304;47.606;12.186;2023-07-28T01:45:54;16.80;71.20
4584;DHT22;2304;47.606;12.186;2023-07-28T01:50:56;16.70;71.90
4584;DHT22;2304;47.606;12.186;2023-07-28T01:55:58;16.50;73.20
4584;DHT22;2304;47.606;12.186;2023-07-28T02:01:02;16.40;74.20
4584;DHT22;2304;47.606;12.186;2023-07-28T02:06:04;16.40;76.10
4584;DHT22;2304;47.606;12.186;2023-07-28T02:11:06;16.40;74.80
4584;DHT22;2304;47.606;12.186;2023-07-28T02:16:09;16.50;74.70
4584;DHT22;2304;47.606;12.186;2023-07-28T02:21:11;16.60;73.90
4584;DHT22;2304;47.606;12.186;2023-07-28T02:26:13;16.60;72.60
4584;DHT22;2304;47.606;12.186;2023-07-28T02:31:16;16.60;73.50
4584;DHT22;2304;47.606;12.186;2023-07-28T02:36:18;16.60;73.90
4584;DHT22;2304;47.606;12.186;2023-07-28T02:41:20;16.50;73.10
4584;DHT22;2304;47.606;12.186;2023-07-28T02:46:23;16.50;72.60
4584;DHT22;2304;47.606;12.186;2023-07-28T02:51:26;16.40;73.50
4584;DHT22;2304;47.606;12.186;2023-07-28T02:56:27;16.50;73.90
4584;DHT22;2304;47.606;12.186;2023-07-28T03:01:31;16.50;72.90
4584;DHT22;2304;47.606;12.186;2023-07-28T03:06:33;16.50;73.30
4584;DHT22;2304;47.606;12.186;2023-07-28T03:11:36;16.50;73.10
4584;DHT22;2304;47.606;12.186;2023-07-28T03:16:39;16.50;73.30
4584;DHT22;2304;47.606;12.186;2023-07-28T03:21:41;16.50;73.30
4584;DHT22;2304;47.606;12.186;2023-07-28T03:26:43;16.40;72.30
4584;DHT22;2304;47.606;12.186;2023-07-28T03:31:47;16.30;72.60
4584;DHT22;2304;47.606;12.186;2023-07-28T03:36:48;16.60;74.50
4584;DHT22;2304;47.606;12.186;2023-07-28T03:41:50;16.30;73.60
4584;DHT22;2304;47.606;12.186;2023-07-28T03:46:53;16.30;73.20
4584;DHT22;2304;47.606;12.186;2023-07-28T03:51:55;16.40;73.90
4584;DHT22;2304;47.606;12.186;2023-07-28T03:56:57;16.40;74.00
4584;DHT22;2304;47.606;12.186;2023-07-28T04:02:01;16.40;72.20
4584;DHT22;2304;47.606;12.186;2023-07-28T04:07:03;16.50;73.60
4584;DHT22;2304;47.606;12.186;2023-07-28T04:12:05;16.40;73.40
4584;DHT22;2304;47.606;12.186;2023-07-28T04:17:09;16.50;73.50
4584;DHT22;2304;47.606;12.186;2023-07-28T04:22:12;16.40;72.60
4584;DHT22;2304;47.606;12.186;2023-07-28T04:27:14;16.10;72.40
4584;DHT22;2304;47.606;12.186;2023-07-28T04:32:17;16.00;73.30
4584;DHT22;2304;47.606;12.186;2023-07-28T04:37:19;15.90;73.80
4584;DHT22;2304;47.606;12.186;2023-07-28T04:42:21;16.00;74.00
4584;DHT22;2304;47.606;12.186;2023-07-28T04:47:24;15.90;72.90
4584;DHT22;2304;47.606;12.186;2023-07-28T04:52:26;16.00;74.20
4584;DHT22;2304;47.606;12.186;2023-07-28T04:57:28;16.00;73.00
4584;DHT22;2304;47.606;12.186;2023-07-28T05:02:31;16.00;75.20
4584;DHT22;2304;47.606;12.186;2023-07-28T05:07:33;15.80;75.80
4584;DHT22;2304;47.606;12.186;2023-07-28T05:12:35;15.80;75.20
4584;DHT22;2304;47.606;12.186;2023-07-28T05:17:38;15.90;74.60
4584;DHT22;2304;47.606;12.186;2023-07-28T05:22:40;15.90;73.90
4584;DHT22;2304;47.606;12.186;2023-07-28T05:27:42;15.80;74.20
4584;DHT22;2304;47.606;12.186;2023-07-28T05:32:46;15.80;74.30
4584;DHT22;2304;47.606;12.186;2023-07-28T05:37:48;15.70;75.30
4584;DHT22;2304;47.606;12.186;2023-07-28T05:42:50;15.80;76.70
4584;DHT22;2304;47.606;12.186;2023-07-28T05:47:53;15.90;77.30
4584;DHT22;2304;47.606;12.186;2023-07-28T05:52:55;16.00;77.30
4584;DHT22;2304;47.606;12.186;2023-07-28T05:57:57;16.30;75.90
4584;DHT22;2304;47.606;12.186;2023-07-28T06:03:00;16.30;74.80
4584;DHT22;2304;47.606;12.186;2023-07-28T06:08:02;16.20;76.60
4584;DHT22;2304;47.606;12.186;2023-07-28T06:13:04;16.20;76.40
4584;DHT22;2304;47.606;12.186;2023-07-28T06:18:07;16.30;75.70
4584;DHT22;2304;47.606;12.186;2023-07-28T06:23:09;16.40;75.10
4584;DHT22;2304;47.606;12.186;2023-07-28T06:28:11;16.40;75.00
4584;DHT22;2304;47.606;12.186;2023-07-28T06:33:14;16.40;74.50
4584;DHT22;2304;47.606;12.186;2023-07-28T06:38:17;16.40;74.40
4584;DHT22;2304;47.606;12.186;2023-07-28T06:43:19;16.40;74.80
4584;DHT22;2304;47.606;12.186;2023-07-28T06:48:22;16.40;75.20
4584;DHT22;2304;47.606;12.186;2023-07-28T06:53:24;16.40;75.40
4584;DHT22;2304;47.606;12.186;2023-07-28T06:58:26;16.50;75.90
4584;DHT22;2304;47.606;12.186;2023-07-28T07:03:29;16.90;75.90
4584;DHT22;2304;47.606;12.186;2023-07-28T07:08:31;17.30;76.00
4584;DHT22;2304;47.606;12.186;2023-07-28T07:13:33;17.30;72.20
4584;DHT22;2304;47.606;12.186;2023-07-28T07:18:36;17.20;72.60
4584;DHT22;2304;47.606;12.186;2023-07-28T07:23:38;17.10;73.50
4584;DHT22;2304;47.606;12.186;2023-07-28T07:28:40;16.90;73.40
4584;DHT22;2304;47.606;12.186;2023-07-28T07:33:44;16.90;74.00
4584;DHT22;2304;47.606;12.186;2023-07-28T07:38:46;17.00;74.00
4584;DHT22;2304;47.606;12.186;2023-07-28T07:43:50;17.10;74.10
4584;DHT22;2304;47.606;12.186;2023-07-28T07:48:53;17.10;73.60
4584;DHT22;2304;47.606;12.186;2023-07-28T07:53:55;17.30;72.70
4584;DHT22;2304;47.606;12.186;2023-07-28T07:58:57;17.40;71.60
4584;DHT22;2304;47.606;12.186;2023-07-28T08:04:00;17.90;71.40
4584;DHT22;2304;47.606;12.186;2023-07-28T08:09:02;18.60;70.10
4584;DHT22;2304;47.606;12.186;2023-07-28T08:14:04;18.90;68.10
4584;DHT22;2304;47.606;12.186;2023-07-28T08:19:07;19.20;65.40
4584;DHT22;2304;47.606;12.186;2023-07-28T08:24:10;19.50;64.20
4584;DHT22;2304;47.606;12.186;2023-07-28T08:29:12;19.90;66.40
4584;DHT22;2304;47.606;12.186;2023-07-28T08:34:15;20.40;63.10
4584;DHT22;2304;47.606;12.186;2023-07-28T08:39:18;20.70;63.10
4584;DHT22;2304;47.606;12.186;2023-07-28T08:44:20;21.10;65.60
4584;DHT22;2304;47.606;12.186;2023-07-28T08:49:24;21.20;61.60
4584;DHT22;2304;47.606;12.186;2023-07-28T08:54:27;21.30;59.30
4584;DHT22;2304;47.606;12.186;2023-07-28T08:59:29;21.60;59.90
4584;DHT22;2304;47.606;12.186;2023-07-28T09:04:32;21.70;58.30
4584;DHT22;2304;47.606;12.186;2023-07-28T09:09:35;21.80;57.60
4584;DHT22;2304;47.606;12.186;2023-07-28T09:14:37;22.00;60.10
4584;DHT22;2304;47.606;12.186;2023-07-28T09:19:51;22.30;57.60
4584;DHT22;2304;47.606;12.186;2023-07-28T09:24:53;22.90;61.70
4584;DHT22;2304;47.606;12.186;2023-07-28T09:29:55;23.30;60.00
4584;DHT22;2304;47.606;12.186;2023-07-28T09:35:10;23.60;56.40
4584;DHT22;2304;47.606;12.186;2023-07-28T09:40:14;23.90;57.20
4584;DHT22;2304;47.606;12.186;2023-07-28T09:45:17;24.30;56.50
4584;DHT22;2304;47.606;12.186;2023-07-28T09:50:23;24.30;52.90
4584;DHT22;2304;47.606;12.186;2023-07-28T09:55:26;24.40;52.30
4584;DHT22;2304;47.606;12.186;2023-07-28T10:00:28;24.10;53.30
4584;DHT22;2304;47.606;12.186;2023-07-28T10:05:33;24.10;53.60
4584;DHT22;2304;47.606;12.186;2023-07-28T10:10:35;24.40;53.90
4584;DHT22;2304;47.606;12.186;2023-07-28T10:15:37;24.50;54.50
4584;DHT22;2304;47.606;12.186;2023-07-28T10:20:43;24.60;54.10
4584;DHT22;2304;47.606;12.186;2023-07-28T10:25:56;24.40;56.40
4584;DHT22;2304;47.606;12.186;2023-07-28T10:31:00;24.60;56.30
4584;DHT22;2304;47.606;12.186;2023-07-28T10:36:14;25.00;55.30
4584;DHT22;2304;47.606;12.186;2023-07-28T10:41:17;25.50;53.70
4584;DHT22;2304;47.606;12.186;2023-07-28T10:46:21;25.80;55.40
4584;DHT22;2304;47.606;12.186;2023-07-28T10:51:26;25.80;55.00
4584;DHT22;2304;47.606;12.186;2023-07-28T10:56:31;25.70;55.90
4584;DHT22;2304;47.606;12.186;2023-07-28T11:01:34;25.60;55.20
4584;DHT22;2304;47.606;12.186;2023-07-28T11:06:40;25.90;55.50
4584;DHT22;2304;47.606;12.186;2023-07-28T11:11:43;26.00;52.70
4584;DHT22;2304;47.606;12.186;2023-07-28T11:16:46;26.00;54.00
4584;DHT22;2304;47.606;12.186;2023-07-28T11:21:50;26.20;53.10
4584;DHT22;2304;47.606;12.186;2023-07-28T11:26:52;26.20;52.30
4584;DHT22;2304;47.606;12.186;2023-07-28T11:31:54;26.20;52.30
4584;DHT22;2304;47.606;12.186;2023-07-28T11:36:58;26.70;53.10
4584;DHT22;2304;47.606;12.186;2023-07-28T11:42:00;26.50;52.90
4584;DHT22;2304;47.606;12.186;2023-07-28T11:47:04;26.10;52.40
4584;DHT22;2304;47.606;12.186;2023-07-28T11:52:08;26.00;53.80
4584;DHT22;2304;47.606;12.186;2023-07-28T11:57:10;25.90;52.30
4584;DHT22;2304;47.606;12.186;2023-07-28T12:02:12;25.70;53.70
4584;DHT22;2304;47.606;12.186;2023-07-28T12:07:15;25.50;54.30
4584;DHT22;2304;47.606;12.186;2023-07-28T12:12:19;25.40;57.20
4584;DHT22;2304;47.606;12.186;2023-07-28T12:17:23;25.30;59.10
4584;DHT22;2304;47.606;12.186;2023-07-28T12:22:27;25.30;59.40
4584;DHT22;2304;47.606;12.186;2023-07-28T12:27:30;25.30;59.70
4584;DHT22;2304;47.606;12.186;2023-07-28T12:32:32;25.40;59.70
4584;DHT22;2304;47.606;12.186;2023-07-28T12:37:35;25.40;60.40
4584;DHT22;2304;47.606;12.186;2023-07-28T12:42:38;25.50;61.00
4584;DHT22;2304;47.606;12.186;2023-07-28T12:47:40;25.50;61.10
4584;DHT22;2304;47.606;12.186;2023-07-28T12:52:43;25.40;61.00
4584;DHT22;2304;47.606;12.186;2023-07-28T12:57:47;25.30;61.30
4584;DHT22;2304;47.606;12.186;2023-07-28T13:02:49;25.30;60.10
4584;DHT22;2304;47.606;12.186;2023-07-28T13:07:52;25.20;60.90
4584;DHT22;2304;47.606;12.186;2023-07-28T13:12:54;25.20;62.60
4584;DHT22;2304;47.606;12.186;2023-07-28T13:17:56;25.10;62.00
4584;DHT22;2304;47.606;12.186;2023-07-28T13:22:59;25.00;62.00
4584;DHT22;2304;47.606;12.186;2023-07-28T13:28:01;25.00;63.60
4584;DHT22;2304;47.606;12.186;2023-07-28T13:33:03;24.80;62.60
4584;DHT22;2304;47.606;12.186;2023-07-28T13:38:07;24.80;61.30
4584;DHT22;2304;47.606;12.186;2023-07-28T13:43:09;24.80;62.80
4584;DHT22;2304;47.606;12.186;2023-07-28T13:48:11;24.70;62.70
4584;DHT22;2304;47.606;12.186;2023-07-28T13:53:14;24.70;64.00
4584;DHT22;2304;47.606;12.186;2023-07-28T13:58:16;24.60;64.90
4584;DHT22;2304;47.606;12.186;2023-07-28T14:03:17;24.60;65.70
4584;DHT22;2304;47.606;12.186;2023-07-28T14:08:21;24.60;67.40
4584;DHT22;2304;47.606;12.186;2023-07-28T14:13:22;24.50;68.20
4584;DHT22;2304;47.606;12.186;2023-07-28T14:18:24;24.40;67.00
4584;DHT22;2304;47.606;12.186;2023-07-28T14:23:28;24.40;66.70
4584;DHT22;2304;47.606;12.186;2023-07-28T14:28:30;24.30;66.60
4584;DHT22;2304;47.606;12.186;2023-07-28T14:33:32;24.30;67.50
4584;DHT22;2304;47.606;12.186;2023-07-28T14:38:35;24.30;67.80
4584;DHT22;2304;47.606;12.186;2023-07-28T14:43:37;24.30;69.60
4584;DHT22;2304;47.606;12.186;2023-07-28T14:48:38;24.30;67.60
4584;DHT22;2304;47.606;12.186;2023-07-28T14:53:42;24.30;67.50
4584;DHT22;2304;47.606;12.186;2023-07-28T14:58:45;24.40;67.60
4584;DHT22;2304;47.606;12.186;2023-07-28T15:03:47;24.60;66.90
4584;DHT22;2304;47.606;12.186;2023-07-28T15:08:51;24.70;67.20
4584;DHT22;2304;47.606;12.186;2023-07-28T15:13:53;24.60;66.80
4584;DHT22;2304;47.606;12.186;2023-07-28T15:18:55;24.60;67.00
4584;DHT22;2304;47.606;12.186;2023-07-28T15:23:58;24.50;66.00
4584;DHT22;2304;47.606;12.186;2023-07-28T15:29:00;24.60;63.80
4584;DHT22;2304;47.606;12.186;2023-07-28T15:34:02;25.10;64.00
4584;DHT22;2304;47.606;12.186;2023-07-28T15:39:07;25.40;61.50
4584;DHT22;2304;47.606;12.186;2023-07-28T15:44:09;25.50;62.60
4584;DHT22;2304;47.606;12.186;2023-07-28T15:49:11;25.50;59.30
4584;DHT22;2304;47.606;12.186;2023-07-28T15:54:15;25.60;57.70
4584;DHT22;2304;47.606;12.186;2023-07-28T15:59:17;25.60;54.50
4584;DHT22;2304;47.606;12.186;2023-07-28T16:04:18;25.50;55.60
4584;DHT22;2304;47.606;12.186;2023-07-28T16:09:22;25.40;55.10
4584;DHT22;2304;47.606;12.186;2023-07-28T16:14:24;25.60;56.60
4584;DHT22;2304;47.606;12.186;2023-07-28T16:19:25;25.80;56.30
4584;DHT22;2304;47.606;12.186;2023-07-28T16:24:29;26.00;56.90
4584;DHT22;2304;47.606;12.186;2023-07-28T16:29:31;26.00;54.90
4584;DHT22;2304;47.606;12.186;2023-07-28T16:34:33;25.80;54.80
4584;DHT22;2304;47.606;12.186;2023-07-28T16:39:36;25.60;54.90
4584;DHT22;2304;47.606;12.186;2023-07-28T16:44:38;25.50;55.30
4584;DHT22;2304;47.606;12.186;2023-07-28T16:49:40;25.40;56.30
4584;DHT22;2304;47.606;12.186;2023-07-28T16:54:43;25.20;57.70
4584;DHT22;2304;47.606;12.186;2023-07-28T16:59:45;25.10;58.00
4584;DHT22;2304;47.606;12.186;2023-07-28T17:04:47;25.00;58.10
4584;DHT22;2304;47.606;12.186;2023-07-28T17:09:50;24.90;58.00
4584;DHT22;2304;47.606;12.186;2023-07-28T17:14:52;24.80;57.80
4584;DHT22;2304;47.606;12.186;2023-07-28T17:19:54;24.70;58.00
4584;DHT22;2304;47.606;12.186;2023-07-28T17:24:57;24.70;58.30
4584;DHT22;2304;47.606;12.186;2023-07-28T17:29:59;24.70;58.80
4584;DHT22;2304;47.606;12.186;2023-07-28T17:35:01;24.60;59.30
4584;DHT22;2304;47.606;12.186;2023-07-28T17:40:06;24.60;59.20
4584;DHT22;2304;47.606;12.186;2023-07-28T17:45:08;24.60;59.30
4584;DHT22;2304;47.606;12.186;2023-07-28T17:50:10;24.40;59.60
4584;DHT22;2304;47.606;12.186;2023-07-28T17:55:16;24.30;62.00
4584;DHT22;2304;47.606;12.186;2023-07-28T18:00:18;24.10;63.00
4584;DHT22;2304;47.606;12.186;2023-07-28T18:05:20;24.00;63.70
4584;DHT22;2304;47.606;12.186;2023-07-28T18:10:24;23.90;65.90
4584;DHT22;2304;47.606;12.186;2023-07-28T18:15:25;23.80;65.50
4584;DHT22;2304;47.606;12.186;2023-07-28T18:20:27;23.70;65.30
4584;DHT22;2304;47.606;12.186;2023-07-28T18:25:31;23.60;65.70
4584;DHT22;2304;47.606;12.186;2023-07-28T18:30:32;23.50;66.50
4584;DHT22;2304;47.606;12.186;2023-07-28T18:35:35;23.30;66.70
4584;DHT22;2304;47.606;12.186;2023-07-28T18:40:38;23.20;66.60
4584;DHT22;2304;47.606;12.186;2023-07-28T18:45:40;23.20;66.30
4584;DHT22;2304;47.606;12.186;2023-07-28T18:50:42;23.10;66.20
4584;DHT22;2304;47.606;12.186;2023-07-28T18:55:45;23.00;66.30
4584;DHT22;2304;47.606;12.186;2023-07-28T19:00:47;22.90;67.10
4584;DHT22;2304;47.606;12.186;2023-07-28T19:05:49;22.80;67.70
4584;DHT22;2304;47.606;12.186;2023-07-28T19:10:52;22.70;67.70
4584;DHT22;2304;47.606;12.186;2023-07-28T19:15:54;22.70;70.20
4584;DHT22;2304;47.606;12.186;2023-07-28T19:20:56;22.50;65.80
4584;DHT22;2304;47.606;12.186;2023-07-28T19:25:59;22.30;65.60
4584;DHT22;2304;47.606;12.186;2023-07-28T19:31:01;22.20;68.30
4584;DHT22;2304;47.606;12.186;2023-07-28T19:36:05;22.10;70.20
4584;DHT22;2304;47.606;12.186;2023-07-28T19:41:08;22.00;73.00
4584;DHT22;2304;47.606;12.186;2023-07-28T19:46:10;21.90;73.70
4584;DHT22;2304;47.606;12.186;2023-07-28T19:51:12;21.70;73.30
4584;DHT22;2304;47.606;12.186;2023-07-28T19:56:15;21.50;73.50
4584;DHT22;2304;47.606;12.186;2023-07-28T20:01:17;21.50;75.40
4584;DHT22;2304;47.606;12.186;2023-07-28T20:06:19;21.30;75.60
4584;DHT22;2304;47.606;12.186;2023-07-28T20:11:22;21.10;77.40
4584;DHT22;2304;47.606;12.186;2023-07-28T20:16:24;20.90;78.10
4584;DHT22;2304;47.606;12.186;2023-07-28T20:21:26;20.90;79.30
4584;DHT22;2304;47.606;12.186;2023-07-28T20:26:29;20.60;79.60
4584;DHT22;2304;47.606;12.186;2023-07-28T20:31:31;20.50;82.10
4584;DHT22;2304;47.606;12.186;2023-07-28T20:36:33;20.40;83.10
4584;DHT22;2304;47.606;12.186;2023-07-28T20:41:36;20.40;83.30
4584;DHT22;2304;47.606;12.186;2023-07-28T20:46:38;20.40;82.10
4584;DHT22;2304;47.606;12.186;2023-07-28T20:51:40;20.40;82.60
4584;DHT22;2304;47.606;12.186;2023-07-28T20:56:43;20.20;82.80
4584;DHT22;2304;47.606;12.186;2023-07-28T21:01:45;20.10;83.60
4584;DHT22;2304;47.606;12.186;2023-07-28T21:06:47;20.00;83.20
4584;DHT22;2304;47.606;12.186;2023-07-28T21:11:50;19.70;83.50
4584;DHT22;2304;47.606;12.186;2023-07-28T21:16:52;19.70;83.40
4584;DHT22;2304;47.606;12.186;2023-07-28T21:21:54;19.60;83.30
4584;DHT22;2304;47.606;12.186;2023-07-28T21:26:57;19.40;84.30
4584;DHT22;2304;47.606;12.186;2023-07-28T21:32:00;19.40;84.60
4584;DHT22;2304;47.606;12.186;2023-07-28T21:37:02;19.30;84.90
4584;DHT22;2304;47.606;12.186;2023-07-28T21:42:09;19.30;84.70
4584;DHT22;2304;47.606;12.186;2023-07-28T21:47:11;19.20;84.50
4584;DHT22;2304;47.606;12.186;2023-07-28T21:52:13;19.20;84.90
4584;DHT22;2304;47.606;12.186;2023-07-28T21:57:16;19.10;85.60
4584;DHT22;2304;47.606;12.186;2023-07-28T22:02:18;19.10;86.20
4584;DHT22;2304;47.606;12.186;2023-07-28T22:07:20;19.10;86.60
4584;DHT22;2304;47.606;12.186;2023-07-28T22:12:23;19.10;86.40
4584;DHT22;2304;47.606;12.186;2023-07-28T22:17:26;19.20;85.40
4584;DHT22;2304;47.606;12.186;2023-07-28T22:22:28;19.10;85.70
4584;DHT22;2304;47.606;12.186;2023-07-28T22:27:31;19.00;86.10
4584;DHT22;2304;47.606;12.186;2023-07-28T22:32:33;19.00;85.80
4584;DHT22;2304;47.606;12.186;2023-07-28T22:37:36;19.00;85.40
4584;DHT22;2304;47.606;12.186;2023-07-28T22:42:39;19.00;86.00
4584;DHT22;2304;47.606;12.186;2023-07-28T22:47:41;19.00;86.10
4584;DHT22;2304;47.606;12.186;2023-07-28T22:52:43;18.90;86.10
4584;DHT22;2304;47.606;12.186;2023-07-28T22:57:47;18.80;86.80
4584;DHT22;2304;47.606;12.186;2023-07-28T23:02:49;18.80;87.60
4584;DHT22;2304;47.606;12.186;2023-07-28T23:07:51;18.80;87.90
4584;DHT22;2304;47.606;12.186;2023-07-28T23:12:54;18.70;89.00
4584;DHT22;2304;47.606;12.186;2023-07-28T23:17:56;18.70;89.40
4584;DHT22;2304;47.606;12.186;2023-07-28T23:22:58;18.70;89.80
4584;DHT22;2304;47.606;12.186;2023-07-28T23:28:02;18.70;90.00
4584;DHT22;2304;47.606;12.186;2023-07-28T23:33:04;18.60;90.60
4584;DHT22;2304;47.606;12.186;2023-07-28T23:38:05;18.60;91.50
4584;DHT22;2304;47.606;12.186;2023-07-28T23:43:09;18.70;91.40
4584;DHT22;2304;47.606;12.186;2023-07-28T23:48:10;18.60;91.20
4584;DHT22;2304;47.606;12.186;2023-07-28T23:53:12;18.60;91.90
4584;DHT22;2304;47.606;12.186;2023-07-28T23:58:16;18.50;91.60
